createdAt,value
2019-04-11T00:03:29.919Z,100045.59
2019-04-11T00:08:48.553Z,100039.18
2019-04-11T00:14:07.436Z,100048.31
2019-04-11T00:19:26.077Z,100048.34
2019-04-11T00:24:45.202Z,100051.48
2019-04-11T00:30:05.956Z,100055.88
2019-04-11T00:35:24.536Z,100048.09
2019-04-11T00:40:43.741Z,100053.13
2019-04-11T00:46:02.992Z,100055.80
2019-04-11T00:51:21.800Z,100046.27
2019-04-11T00:56:40.419Z,100058.73
2019-04-11T01:01:58.998Z,100053.93
2019-04-11T01:07:18.529Z,100055.30
2019-04-11T01:12:37.175Z,100057.44
2019-04-11T01:17:55.973Z,100057.37
2019-04-11T01:23:15.149Z,100062.42
2019-04-11T01:28:34.440Z,100064.27
2019-04-11T01:33:53.886Z,100060.50
2019-04-11T01:39:30.058Z,100067.09
2019-04-11T01:44:49.322Z,100069.17
2019-04-11T01:50:08.524Z,100062.83
2019-04-11T01:55:28.245Z,100072.55
2019-04-11T02:00:54.645Z,100081.09
2019-04-11T02:06:13.904Z,100075.78
2019-04-11T02:11:32.424Z,100081.73
2019-04-11T02:16:52.266Z,100093.67
2019-04-11T02:22:15.957Z,100095.33
2019-04-11T02:27:36.237Z,100094.27
2019-04-11T02:32:56.101Z,100101.41
2019-04-11T02:38:16.469Z,100102.95
2019-04-11T02:43:36.501Z,100102.15
2019-04-11T02:48:56.770Z,100095.99
2019-04-11T02:54:17.942Z,100106.16
2019-04-11T02:59:38.758Z,100111.02
2019-04-11T03:04:57.601Z,100108.66
2019-04-11T03:10:16.531Z,100112.67
2019-04-11T03:15:48.490Z,100115.87
2019-04-11T03:21:00.162Z,100119.28
2019-04-11T03:26:16.914Z,100121.52
2019-04-11T03:32:18.054Z,100126.48
2019-04-11T03:42:32.351Z,100125.16
2019-04-11T03:47:51.592Z,100127.98
2019-04-11T03:52:59.487Z,100122.98
2019-04-11T03:58:19.677Z,100128.45
2019-04-11T04:03:39.259Z,100134.48
2019-04-11T04:08:58.460Z,100141.68
2019-04-11T04:14:21.615Z,100147.51
2019-04-11T04:19:43.661Z,100152.94
2019-04-11T04:25:04.299Z,100152.16
2019-04-11T04:30:27.712Z,100149.44
2019-04-11T04:35:51.566Z,100163.81
2019-04-11T04:41:22.457Z,100166.41
2019-04-11T04:46:47.152Z,100176.98
2019-04-11T04:51:55.672Z,100184.31
2019-04-11T04:57:20.189Z,100183.76
2019-04-11T05:02:39.738Z,100197.36
2019-04-11T05:08:00.627Z,100203.66
2019-04-11T05:13:19.511Z,100204.03
2019-04-11T05:18:40.540Z,100205.12
2019-04-11T05:23:59.157Z,100206.07
2019-04-11T05:29:17.712Z,100224.25
2019-04-11T05:34:37.173Z,100233.80
2019-04-11T05:39:56.720Z,100242.01
2019-04-11T05:45:20.772Z,100238.48
2019-04-11T05:50:36.162Z,100249.61
2019-04-11T05:55:55.925Z,100254.87
2019-04-11T06:01:16.189Z,100254.89
2019-04-11T06:06:51.146Z,100262.47
2019-04-11T06:12:14.237Z,100266.12
2019-04-11T06:17:32.717Z,100276.40
2019-04-11T06:22:53.867Z,100276.38
2019-04-11T06:28:14.248Z,100288.67
2019-04-11T06:33:34.541Z,100292.26
2019-04-11T06:38:54.788Z,100303.37
2019-04-11T06:44:31.989Z,100294.73
2019-04-11T06:49:53.037Z,100302.30
2019-04-11T06:55:16.315Z,100309.47
2019-04-11T07:00:35.085Z,100313.05
2019-04-11T07:05:53.871Z,100313.80
2019-04-11T07:11:14.042Z,100322.16
2019-04-11T07:16:34.065Z,100313.37
2019-04-11T07:21:56.059Z,100322.57
2019-04-11T07:27:14.325Z,100317.31
2019-04-11T07:32:34.157Z,100323.39
2019-04-11T07:37:53.290Z,100324.98
2019-04-11T07:43:13.918Z,100319.09
2019-04-11T07:48:33.803Z,100329.05
2019-04-11T07:53:52.653Z,100328.49
2019-04-11T07:59:15.519Z,100330.08
2019-04-11T08:04:45.178Z,100335.55
2019-04-11T08:10:22.818Z,100337.33
2019-04-11T08:15:59.334Z,100347.17
2019-04-11T08:21:26.201Z,100344.95
2019-04-11T08:27:03.002Z,100339.62
2019-04-11T08:32:25.980Z,100348.39
2019-04-11T08:37:49.234Z,100345.56
2019-04-11T08:43:09.485Z,100341.25
2019-04-11T08:48:29.873Z,100345.62
2019-04-11T08:53:59.416Z,100348.69
2019-04-11T08:59:37.829Z,100352.52
2019-04-11T09:05:16.513Z,100351.20
2019-04-11T09:10:52.527Z,100355.63
2019-04-11T09:16:15.464Z,100352.47
2019-04-11T09:21:42.471Z,100339.32
2019-04-11T09:27:20.470Z,100345.45
2019-04-11T09:32:56.952Z,100345.84
2019-04-11T09:38:18.155Z,100339.91
2019-04-11T09:43:38.333Z,100339.97
2019-04-11T09:49:04.521Z,100343.09
2019-04-11T09:54:24.628Z,100345.06
2019-04-11T09:59:45.521Z,100348.03
2019-04-11T10:05:07.533Z,100337.38
2019-04-11T10:10:33.503Z,100335.24
2019-04-11T10:16:09.650Z,100333.84
2019-04-11T10:21:31.048Z,100339.15
2019-04-11T10:26:54.217Z,100330.30
2019-04-11T10:32:14.917Z,100332.19
2019-04-11T10:37:35.906Z,100339.74
2019-04-11T10:42:54.399Z,100331.62
2019-04-11T10:48:13.877Z,100335.45
2019-04-11T10:53:33.279Z,100332.32
2019-04-11T10:58:53.333Z,100342.73
2019-04-11T11:04:13.895Z,100338.55
2019-04-11T11:09:35.361Z,100347.64
2019-04-11T11:15:07.920Z,100343.80
2019-04-11T11:20:48.356Z,100351.66
2019-04-11T11:26:02.821Z,100360.02
2019-04-11T11:31:24.350Z,100353.23
2019-04-11T11:36:54.967Z,100360.75
2019-04-11T11:42:30.403Z,100369.26
2019-04-11T11:47:51.184Z,100349.78
2019-04-11T11:53:28.385Z,100349.03
2019-04-11T11:58:55.333Z,100345.89
2019-04-11T12:04:19.743Z,100344.63
2019-04-11T12:09:56.087Z,100348.81
2019-04-11T12:15:22.855Z,100342.62
2019-04-11T12:20:51.293Z,100344.53
2019-04-11T12:26:13.400Z,100350.56
2019-04-11T12:31:35.590Z,100342.27
2019-04-11T12:36:55.973Z,100350.30
2019-04-11T12:42:16.501Z,100348.66
2019-04-11T12:47:38.450Z,100341.89
2019-04-11T12:52:58.126Z,100334.98
2019-04-11T12:58:26.987Z,100338.81
2019-04-11T13:03:49.790Z,100335.14
2019-04-11T13:09:13.948Z,100324.19
2019-04-11T13:14:39.834Z,100330.59
2019-04-11T13:20:09.057Z,100319.22
2019-04-11T13:25:34.961Z,100329.31
2019-04-11T13:31:01.265Z,100317.56
2019-04-11T13:36:21.451Z,100317.77
2019-04-11T13:41:41.589Z,100320.14
2019-04-11T13:47:17.771Z,100315.16
2019-04-11T13:52:40.922Z,100323.40
2019-04-11T13:58:04.069Z,100315.14
2019-04-11T14:03:30.083Z,100314.07
2019-04-11T14:08:50.277Z,100296.28
2019-04-11T14:14:13.507Z,100300.31
2019-04-11T14:19:41.585Z,100308.29
2019-04-11T14:25:04.541Z,100295.70
2019-04-11T14:30:36.577Z,100302.95
2019-04-11T14:36:02.593Z,100290.45
2019-04-11T14:41:29.836Z,100294.13
2019-04-11T14:47:02.207Z,100285.41
2019-04-11T14:52:38.514Z,100278.05
2019-04-11T14:57:59.531Z,100283.27
2019-04-11T15:03:28.829Z,100295.75
2019-04-11T15:08:58.011Z,100290.61
2019-04-11T15:14:18.579Z,100284.16
2019-04-11T15:19:37.201Z,100279.57
2019-04-11T15:25:13.489Z,100282.54
2019-04-11T15:30:33.728Z,100283.05
2019-04-11T15:35:57.637Z,100290.15
2019-04-11T15:41:14.380Z,100301.66
2019-04-11T15:46:34.592Z,100282.09
2019-04-11T15:51:54.803Z,100288.97
2019-04-11T15:57:15.075Z,100309.31
2019-04-11T16:02:53.410Z,100298.45
2019-04-11T16:08:15.992Z,100305.77
2019-04-11T16:13:36.191Z,100297.86
2019-04-11T16:19:02.388Z,100296.36
2019-04-11T16:24:34.660Z,100292.13
2019-04-11T16:29:57.612Z,100295.28
2019-04-11T16:35:38.384Z,100295.67
2019-04-11T16:41:15.129Z,100296.91
2019-04-11T16:46:38.067Z,100300.94
2019-04-11T16:51:56.752Z,100305.05
2019-04-11T16:57:16.995Z,100310.92
2019-04-11T17:02:35.623Z,100303.64
2019-04-11T17:07:58.757Z,100310.47
2019-04-11T17:13:17.385Z,100303.95
2019-04-11T17:18:36.024Z,100303.69
2019-04-11T17:23:54.643Z,100308.16
2019-04-11T17:29:13.111Z,100311.73
2019-04-11T17:34:32.375Z,100323.19
2019-04-11T17:39:51.580Z,100323.78
2019-04-11T17:45:10.200Z,100322.82
2019-04-11T17:50:28.742Z,100329.81
2019-04-11T17:55:47.355Z,100344.48
2019-04-11T18:01:07.536Z,100363.64
2019-04-11T18:06:26.103Z,100352.14
2019-04-11T18:11:44.589Z,100361.20
2019-04-11T18:17:04.542Z,100359.70
2019-04-11T18:22:23.339Z,100364.78
2019-04-11T18:27:41.963Z,100367.03
2019-04-11T18:33:00.525Z,100385.45
2019-04-11T18:38:19.078Z,100382.64
2019-04-11T18:43:37.851Z,100391.76
2019-04-11T18:48:56.465Z,100386.31
2019-04-11T18:54:15.115Z,100398.41
2019-04-11T18:59:34.069Z,100393.28
2019-04-11T19:04:53.080Z,100401.21
2019-04-11T19:10:14.967Z,100403.47
2019-04-11T19:15:32.479Z,100404.23
2019-04-11T19:20:51.167Z,100408.23
2019-04-11T19:26:09.784Z,100413.45
2019-04-11T19:31:28.471Z,100412.08
2019-04-11T19:36:47.118Z,100418.34
2019-04-11T19:42:08.979Z,100415.54
2019-04-11T19:47:26.148Z,100417.45
2019-04-11T19:52:45.824Z,100413.53
2019-04-11T19:58:05.321Z,100416.98
2019-04-11T20:03:24.194Z,100412.63
2019-04-11T20:08:43.304Z,100416.11
2019-04-11T20:14:02.838Z,100415.09
2019-04-11T20:19:21.738Z,100412.00
2019-04-11T20:24:40.279Z,100414.52
2019-04-11T20:29:59.029Z,100407.41
2019-04-11T20:35:28.475Z,100409.98
2019-04-11T20:40:39.175Z,100409.50
2019-04-11T20:45:58.674Z,100410.26
2019-04-11T20:51:17.640Z,100408.83
2019-04-11T20:56:40.126Z,100399.06
2019-04-11T21:01:57.079Z,100405.73
2019-04-11T21:07:15.593Z,100411.05
2019-04-11T21:12:37.029Z,100414.52
2019-04-11T21:17:56.064Z,100413.84
2019-04-11T21:23:24.078Z,100415.31
2019-04-11T21:28:35.129Z,100416.34
2019-04-11T21:33:54.768Z,100425.43
2019-04-11T21:39:13.393Z,100422.55
2019-04-11T21:44:35.957Z,100431.25
2019-04-11T21:49:52.260Z,100436.14
2019-04-11T21:55:15.188Z,100431.41
2019-04-11T22:00:43.608Z,100435.12
2019-04-11T22:06:02.225Z,100438.44
2019-04-11T22:11:20.851Z,100431.75
2019-04-11T22:16:44.132Z,100438.44
2019-04-11T22:21:59.867Z,100430.55
2019-04-11T22:27:22.017Z,100428.52
2019-04-11T22:32:40.186Z,100435.77
2019-04-11T22:37:59.805Z,100440.28
2019-04-11T22:43:24.460Z,100444.30
2019-04-11T22:48:39.791Z,100451.70
2019-04-11T22:54:00.460Z,100443.50
2019-04-11T22:59:19.445Z,100437.98
2019-04-11T23:04:38.256Z,100443.30
2019-04-11T23:09:58.532Z,100439.52
2019-04-11T23:15:17.084Z,100434.48
2019-04-11T23:20:35.725Z,100438.20
2019-04-11T23:25:54.209Z,100441.58
2019-04-11T23:31:12.908Z,100443.45
2019-04-11T23:36:31.385Z,100444.86
2019-04-11T23:41:50.351Z,100451.46
2019-04-11T23:47:08.897Z,100455.23
2019-04-11T23:52:27.489Z,100456.57
2019-04-11T23:57:46.179Z,100468.77
